createdAt,value
2024-01-05T00:03:38.855Z,3.92
2024-01-05T00:07:23.067Z,6.47
2024-01-05T00:11:07.267Z,3.65
2024-01-05T00:14:52.808Z,5.53
2024-01-05T00:18:39.142Z,3.83
2024-01-05T00:26:07.195Z,3.00
2024-01-05T00:29:53.195Z,4.60
2024-01-05T00:33:37.693Z,6.30
2024-01-05T00:37:21.461Z,7.45
2024-01-05T00:41:06.276Z,1.83
2024-01-05T00:44:50.491Z,6.03
2024-01-05T00:48:36.176Z,4.70
2024-01-05T00:52:20.362Z,5.55
2024-01-05T00:56:05.800Z,4.95
2024-01-05T00:59:50.049Z,4.13
2024-01-05T01:03:35.734Z,4.53
2024-01-05T01:07:19.865Z,4.88
2024-01-05T01:11:07.028Z,8.85
2024-01-05T01:14:51.455Z,4.97
2024-01-05T01:18:36.834Z,3.47
2024-01-05T01:26:04.745Z,3.97
2024-01-05T01:29:51.271Z,3.63
2024-01-05T01:33:36.953Z,4.10
2024-01-05T01:37:21.305Z,4.38
2024-01-05T01:41:05.329Z,2.47
2024-01-05T01:44:49.195Z,6.63
2024-01-05T01:48:33.389Z,2.03
2024-01-05T01:52:19.575Z,4.65
2024-01-05T01:56:04.638Z,4.50
2024-01-05T01:59:48.716Z,4.43
2024-01-05T02:03:33.261Z,2.17
2024-01-05T02:07:22.179Z,5.40
2024-01-05T02:11:06.548Z,4.40
2024-01-05T02:14:50.619Z,3.85
2024-01-05T02:18:37.964Z,2.45
2024-01-05T02:22:24.990Z,4.65
2024-01-05T02:26:10.331Z,3.80
2024-01-05T02:29:54.515Z,3.30
2024-01-05T02:33:42.972Z,3.40
2024-01-05T02:37:27.538Z,1.30
2024-01-05T02:41:13.207Z,2.25
2024-01-05T02:44:57.045Z,3.92
2024-01-05T02:48:41.173Z,2.92
2024-01-05T02:52:25.250Z,2.15
2024-01-05T02:56:09.462Z,2.92
2024-01-05T02:59:54.870Z,4.47
2024-01-05T03:03:45.543Z,2.45
2024-01-05T03:11:14.883Z,1.48
2024-01-05T03:15:00.407Z,2.17
2024-01-05T03:18:45.467Z,3.95
2024-01-05T03:22:31.907Z,1.88
2024-01-05T03:26:16.179Z,1.42
2024-01-05T03:30:01.494Z,2.28
2024-01-05T03:37:34.033Z,1.67
2024-01-05T03:41:18.280Z,2.45
2024-01-05T03:45:03.862Z,1.73
2024-01-05T03:48:48.264Z,1.52
2024-01-05T03:52:36.941Z,2.30
2024-01-05T03:56:21.228Z,1.60
2024-01-05T04:00:09.216Z,1.25
2024-01-05T04:03:53.517Z,1.75
2024-01-05T04:07:37.767Z,2.85
2024-01-05T04:11:22.116Z,1.77
2024-01-05T04:15:09.050Z,2.03
2024-01-05T04:18:54.778Z,2.22
2024-01-05T04:22:39.035Z,1.60
2024-01-05T04:26:23.004Z,1.35
2024-01-05T04:30:10.120Z,2.60
2024-01-05T04:33:54.568Z,2.33
2024-01-05T04:37:38.576Z,1.42
2024-01-05T04:41:24.101Z,3.05
2024-01-05T04:45:12.155Z,2.83
2024-01-05T04:48:56.267Z,1.00
2024-01-05T04:52:39.900Z,1.85
2024-01-05T04:56:25.594Z,6.82
2024-01-05T05:03:55.973Z,2.15
2024-01-05T05:07:39.990Z,3.17
2024-01-05T05:11:24.159Z,1.40
2024-01-05T05:15:11.755Z,2.47
2024-01-05T05:18:55.717Z,1.95
2024-01-05T05:22:41.102Z,2.92
2024-01-05T05:26:24.917Z,1.70
2024-01-05T05:30:11.308Z,4.05
2024-01-05T05:33:57.235Z,2.28
2024-01-05T05:37:41.411Z,2.13
2024-01-05T05:41:27.685Z,2.80
2024-01-05T05:45:13.185Z,2.28
2024-01-05T05:52:42.091Z,1.98
2024-01-05T05:56:25.815Z,2.75
2024-01-05T06:00:12.316Z,1.95
2024-01-05T06:03:57.553Z,2.17
2024-01-05T06:07:41.237Z,3.25
2024-01-05T06:11:27.980Z,2.58
2024-01-05T06:15:12.722Z,4.38
2024-01-05T06:18:58.328Z,2.38
2024-01-05T06:22:42.315Z,3.25
2024-01-05T06:26:26.242Z,2.72
2024-01-05T06:30:12.234Z,2.50
2024-01-05T06:34:01.542Z,2.53
2024-01-05T06:37:47.404Z,2.78
2024-01-05T06:41:31.530Z,2.85
2024-01-05T06:45:15.838Z,3.80
2024-01-05T06:49:05.094Z,2.50
2024-01-05T06:52:49.178Z,2.15
2024-01-05T06:56:34.624Z,2.95
2024-01-05T07:04:04.825Z,3.25
2024-01-05T07:07:48.527Z,2.90
2024-01-05T07:11:32.591Z,3.83
2024-01-05T07:15:16.955Z,2.08
2024-01-05T07:19:01.612Z,4.90
2024-01-05T07:22:46.980Z,2.50
2024-01-05T07:26:31.032Z,2.10
2024-01-05T07:30:15.759Z,2.25
2024-01-05T07:34:02.760Z,2.92
2024-01-05T07:37:48.744Z,3.08
2024-01-05T07:41:32.701Z,1.77
2024-01-05T07:45:17.338Z,2.08
2024-01-05T07:49:01.691Z,2.13
2024-01-05T07:52:47.357Z,3.20
2024-01-05T07:56:31.525Z,3.28
2024-01-05T08:00:18.886Z,2.63
2024-01-05T08:04:03.228Z,1.52
2024-01-05T08:07:48.753Z,4.55
2024-01-05T08:11:32.929Z,2.90
2024-01-05T08:15:17.297Z,2.53
2024-01-05T08:19:01.170Z,3.53
2024-01-05T08:22:45.427Z,3.10
2024-01-05T08:26:30.744Z,3.72
2024-01-05T08:30:15.202Z,2.58
2024-01-05T08:33:59.718Z,3.40
2024-01-05T08:37:43.822Z,2.05
2024-01-05T08:41:28.080Z,2.90
2024-01-05T08:45:13.747Z,3.38
2024-01-05T08:48:57.706Z,4.38
2024-01-05T08:52:44.918Z,2.42
2024-01-05T08:56:29.192Z,3.97
2024-01-05T09:00:14.962Z,2.20
2024-01-05T09:03:58.955Z,2.97
2024-01-05T09:07:42.736Z,3.78
2024-01-05T09:11:26.737Z,1.88
2024-01-05T09:15:12.333Z,1.92
2024-01-05T09:18:57.957Z,2.65
2024-01-05T09:22:42.296Z,4.22
2024-01-05T09:26:26.351Z,2.72
2024-01-05T09:30:10.884Z,1.92
2024-01-05T09:33:55.979Z,4.22
2024-01-05T09:37:41.645Z,3.40
2024-01-05T09:41:25.775Z,2.67
2024-01-05T09:45:12.714Z,1.65
2024-01-05T09:48:57.795Z,3.40
2024-01-05T09:52:44.851Z,2.53
2024-01-05T09:56:29.436Z,6.32
2024-01-05T10:00:18.137Z,3.03
2024-01-05T10:04:04.382Z,2.35
2024-01-05T10:07:49.781Z,5.90
2024-01-05T10:11:37.855Z,3.60
2024-01-05T10:15:22.409Z,3.28
2024-01-05T10:19:14.297Z,2.95
2024-01-05T10:23:06.222Z,3.00
2024-01-05T10:27:03.738Z,2.50
2024-01-05T10:30:47.811Z,3.38
2024-01-05T10:34:36.513Z,3.90
2024-01-05T10:38:25.416Z,4.55
2024-01-05T10:42:21.254Z,2.90
2024-01-05T10:46:07.664Z,2.80
2024-01-05T10:49:53.590Z,2.78
2024-01-05T10:53:39.394Z,3.35
2024-01-05T10:57:25.329Z,3.08
2024-01-05T11:01:13.620Z,3.42
2024-01-05T11:05:03.029Z,2.63
2024-01-05T11:09:01.928Z,5.15
2024-01-05T11:13:03.870Z,2.92
2024-01-05T11:17:12.576Z,4.00
2024-01-05T11:21:13.457Z,2.42
2024-01-05T11:24:59.262Z,3.00
2024-01-05T11:28:43.225Z,2.35
2024-01-05T11:32:40.900Z,3.03
2024-01-05T11:40:33.626Z,2.65
2024-01-05T11:44:35.761Z,2.55
2024-01-05T11:48:47.551Z,2.55
2024-01-05T11:52:31.742Z,3.75
2024-01-05T11:56:26.524Z,3.03
2024-01-05T12:00:13.528Z,3.63
2024-01-05T12:03:57.431Z,3.60
2024-01-05T12:07:41.700Z,3.42
2024-01-05T12:11:28.081Z,2.70
2024-01-05T12:15:12.247Z,3.40
2024-01-05T12:18:56.949Z,4.28
2024-01-05T12:22:40.980Z,2.20
2024-01-05T12:26:32.405Z,3.78
2024-01-05T12:30:18.223Z,3.90
2024-01-05T12:34:03.729Z,4.25
2024-01-05T12:37:54.589Z,4.15
2024-01-05T12:41:41.131Z,3.45
2024-01-05T12:45:29.378Z,4.55
2024-01-05T12:49:20.949Z,3.65
2024-01-05T12:53:18.303Z,3.03
2024-01-05T12:57:02.320Z,3.50
2024-01-05T13:00:48.319Z,5.30
2024-01-05T13:04:40.003Z,2.30
2024-01-05T13:08:25.467Z,3.38
2024-01-05T13:12:10.254Z,3.35
2024-01-05T13:15:55.683Z,3.60
2024-01-05T13:19:41.158Z,3.38
2024-01-05T13:23:25.796Z,3.90
2024-01-05T13:27:09.853Z,3.22
2024-01-05T13:30:53.922Z,3.92
2024-01-05T13:34:39.363Z,3.95
2024-01-05T13:38:24.608Z,4.55
2024-01-05T13:45:52.669Z,4.93
2024-01-05T13:49:37.699Z,4.03
2024-01-05T13:57:07.488Z,4.03
2024-01-05T14:00:52.494Z,3.00
2024-01-05T14:04:36.966Z,6.85
2024-01-05T14:08:24.277Z,3.08
2024-01-05T14:12:09.024Z,5.15
2024-01-05T14:15:53.161Z,2.08
2024-01-05T14:19:37.615Z,3.25
2024-01-05T14:23:23.037Z,6.97
2024-01-05T14:27:07.254Z,5.50
2024-01-05T14:30:51.432Z,4.65
2024-01-05T14:34:38.163Z,6.07
2024-01-05T14:38:25.626Z,17.25
2024-01-05T14:42:09.426Z,19.80
2024-01-05T14:45:53.534Z,9.13
2024-01-05T14:49:38.846Z,8.05
2024-01-05T14:53:24.578Z,4.78
2024-01-05T14:57:08.486Z,4.47
2024-01-05T15:00:52.331Z,3.17
2024-01-05T15:04:36.069Z,3.60
2024-01-05T15:08:19.958Z,5.93
2024-01-05T15:12:08.030Z,7.65
2024-01-05T15:15:54.811Z,5.88
2024-01-05T15:19:39.038Z,5.20
2024-01-05T15:23:23.243Z,5.35
2024-01-05T15:27:09.087Z,5.40
2024-01-05T15:30:53.696Z,8.30
2024-01-05T15:34:38.282Z,8.07
2024-01-05T15:38:22.450Z,11.80
2024-01-05T15:42:07.140Z,8.68
2024-01-05T15:45:52.941Z,7.80
2024-01-05T15:49:37.320Z,11.05
2024-01-05T15:53:21.449Z,10.80
2024-01-05T15:57:06.434Z,14.57
2024-01-05T16:00:50.689Z,11.10
2024-01-05T16:04:36.877Z,11.10
2024-01-05T16:08:20.992Z,10.70
2024-01-05T16:12:07.034Z,9.40
2024-01-05T16:15:51.546Z,9.85
2024-01-05T16:19:40.204Z,15.02
2024-01-05T16:23:24.280Z,10.13
2024-01-05T16:27:08.250Z,12.68
2024-01-05T16:30:52.307Z,14.38
2024-01-05T16:34:38.298Z,12.57
2024-01-05T16:38:22.579Z,11.00
2024-01-05T16:42:07.515Z,10.48
2024-01-05T16:45:51.788Z,10.30
2024-01-05T16:49:35.945Z,9.65
2024-01-05T16:53:21.036Z,9.00
2024-01-05T16:57:05.323Z,10.55
2024-01-05T17:00:49.902Z,9.45
2024-01-05T17:04:34.162Z,11.38
2024-01-05T17:08:18.051Z,11.02
2024-01-05T17:12:03.494Z,12.38
2024-01-05T17:15:47.551Z,11.32
2024-01-05T17:19:31.666Z,9.57
2024-01-05T17:23:15.727Z,9.52
2024-01-05T17:26:59.760Z,6.60
2024-01-05T17:30:47.965Z,9.38
2024-01-05T17:34:32.208Z,10.50
2024-01-05T17:38:17.274Z,12.02
2024-01-05T17:42:01.649Z,11.20
2024-01-05T17:45:47.456Z,6.90
2024-01-05T17:49:31.623Z,11.55
2024-01-05T17:53:15.874Z,12.07
2024-01-05T17:57:05.382Z,12.00
2024-01-05T18:00:51.386Z,11.52
2024-01-05T18:04:35.760Z,14.98
2024-01-05T18:08:19.932Z,11.80
2024-01-05T18:12:04.284Z,11.43
2024-01-05T18:15:49.237Z,9.65
2024-01-05T18:19:35.090Z,9.63
2024-01-05T18:23:19.061Z,11.85
2024-01-05T18:27:03.496Z,13.00
2024-01-05T18:30:50.069Z,12.05
2024-01-05T18:34:36.428Z,11.77
2024-01-05T18:38:20.527Z,14.20
2024-01-05T18:42:05.137Z,12.35
2024-01-05T18:45:48.769Z,17.25
2024-01-05T18:49:34.105Z,13.00
2024-01-05T18:53:20.467Z,11.68
2024-01-05T18:57:04.772Z,14.32
2024-01-05T19:00:49.542Z,11.80
2024-01-05T19:04:33.600Z,12.18
2024-01-05T19:08:18.628Z,13.52
2024-01-05T19:12:05.227Z,15.98
2024-01-05T19:15:49.414Z,11.98
2024-01-05T19:19:33.789Z,14.65
2024-01-05T19:23:18.185Z,14.43
2024-01-05T19:27:04.093Z,13.95
2024-01-05T19:30:53.626Z,11.73
2024-01-05T19:34:39.200Z,17.00
2024-01-05T19:38:23.720Z,9.10
2024-01-05T19:42:09.314Z,10.48
2024-01-05T19:45:54.138Z,9.18
2024-01-05T19:49:38.256Z,11.23
2024-01-05T19:53:22.746Z,11.07
2024-01-05T19:57:08.674Z,8.52
2024-01-05T20:00:53.166Z,10.73
2024-01-05T20:04:40.766Z,9.15
2024-01-05T20:08:25.377Z,6.43
2024-01-05T20:12:17.782Z,9.25
2024-01-05T20:16:02.254Z,13.00
2024-01-05T20:19:46.419Z,3.40
2024-01-05T20:23:30.494Z,10.93
2024-01-05T20:27:16.312Z,8.20
2024-01-05T20:31:00.645Z,8.32
2024-01-05T20:34:44.806Z,9.75
2024-01-05T20:38:29.059Z,9.65
2024-01-05T20:42:13.123Z,9.93
2024-01-05T20:45:58.851Z,11.73
2024-01-05T20:49:43.131Z,7.97
2024-01-05T20:53:27.470Z,10.18
2024-01-05T20:57:12.353Z,4.38
2024-01-05T21:00:58.404Z,12.05
2024-01-05T21:04:45.351Z,7.78
2024-01-05T21:08:30.107Z,4.63
2024-01-05T21:12:14.501Z,8.02
2024-01-05T21:15:58.563Z,8.60
2024-01-05T21:19:44.216Z,11.43
2024-01-05T21:23:28.391Z,11.02
2024-01-05T21:27:12.647Z,7.68
2024-01-05T21:30:57.081Z,6.55
2024-01-05T21:34:42.703Z,8.27
2024-01-05T21:38:29.822Z,12.02
2024-01-05T21:42:14.219Z,16.52
2024-01-05T21:45:59.815Z,13.35
2024-01-05T21:49:44.112Z,14.02
2024-01-05T21:53:29.933Z,16.98
2024-01-05T21:57:14.064Z,8.65
2024-01-05T22:00:58.328Z,10.45
2024-01-05T22:04:42.388Z,11.65
2024-01-05T22:08:26.470Z,14.15
2024-01-05T22:12:13.441Z,11.40
2024-01-05T22:15:59.047Z,7.88
2024-01-05T22:19:43.707Z,6.90
2024-01-05T22:23:27.816Z,11.00
2024-01-05T22:27:13.529Z,12.40
2024-01-05T22:30:57.629Z,9.90
2024-01-05T22:34:42.353Z,9.65
2024-01-05T22:38:29.581Z,16.45
2024-01-05T22:42:18.463Z,14.20
2024-01-05T22:46:05.666Z,16.17
2024-01-05T22:49:49.772Z,17.67
2024-01-05T22:53:33.831Z,16.15
2024-01-05T22:57:19.171Z,17.65
2024-01-05T23:01:03.988Z,16.02
2024-01-05T23:04:48.773Z,9.30
2024-01-05T23:08:32.967Z,13.27
2024-01-05T23:12:18.575Z,15.38
2024-01-05T23:16:02.621Z,10.20
2024-01-05T23:19:46.960Z,10.77
2024-01-05T23:23:32.060Z,18.05
2024-01-05T23:31:01.800Z,14.88
2024-01-05T23:34:46.372Z,15.68
2024-01-05T23:38:30.619Z,13.63
2024-01-05T23:42:14.784Z,15.00
2024-01-05T23:45:58.739Z,12.50
2024-01-05T23:49:44.898Z,14.40
2024-01-05T23:53:28.898Z,5.80
2024-01-05T23:57:12.983Z,13.52
